Time;durP1;ratioP1;P1;durP2;ratioP2;P2;SDS_P1;SDS_P2;PMS_P1;PMS_P2;Temp;Humidity;BMP_temperature;BMP_pressure;BME280_temperature;BME280_humidity;BME280_pressure;Samples;Min_cycle;Max_cycle;Signal;HPM_P1;HPM_P2
2022/03/07 00:01:41;;;;;;;0.80;0.80;;;1.10;1.00;;;;;;5030824;28;20635;-74
2022/03/07 00:04:06;;;;;;;0.80;0.80;;;1.10;1.00;;;;;;5030752;28;20182;-74
2022/03/07 00:06:32;;;;;;;0.80;0.80;;;1.10;1.00;;;;;;5030695;28;20191;-74
2022/03/07 00:08:57;;;;;;;0.80;0.80;;;1.00;1.00;;;;;;5030367;28;20176;-74
2022/03/07 00:11:23;;;;;;;0.90;0.90;;;1.10;1.00;;;;;;5031111;28;20187;-73
2022/03/07 00:13:49;;;;;;;0.80;0.80;;;1.10;1.00;;;;;;5030826;28;20180;-74
2022/03/07 00:16:15;;;;;;;0.90;0.90;;;1.00;1.00;;;;;;5030628;28;20190;-73
2022/03/07 00:18:40;;;;;;;0.90;0.90;;;1.00;1.00;;;;;;5030582;28;20180;-74
2022/03/07 00:21:07;;;;;;;0.90;0.90;;;0.90;1.00;;;;;;5030008;28;20284;-73
2022/03/07 00:23:34;;;;;;;0.90;0.90;;;0.90;1.00;;;;;;5030814;28;20176;-75
2022/03/07 00:25:59;;;;;;;0.90;0.90;;;0.90;1.00;;;;;;5030945;28;20176;-74
2022/03/07 00:28:25;;;;;;;0.90;0.90;;;0.90;1.00;;;;;;5030577;28;20176;-75
2022/03/07 00:30:50;;;;;;;0.90;0.90;;;0.90;1.00;;;;;;5029726;28;20199;-74
2022/03/07 00:33:16;;;;;;;0.90;0.90;;;0.90;1.00;;;;;;5031806;28;20168;-74
2022/03/07 00:35:43;;;;;;;0.90;0.90;;;0.90;1.00;;;;;;5034805;28;20258;-74
2022/03/07 00:38:08;;;;;;;0.90;0.90;;;0.90;1.00;;;;;;5034996;28;20179;-75
2022/03/07 00:40:34;;;;;;;1.00;1.00;;;0.90;1.00;;;;;;5034060;28;20215;-74
2022/03/07 00:43:00;;;;;;;1.00;1.00;;;0.80;1.00;;;;;;5034519;28;20182;-74
2022/03/07 00:45:25;;;;;;;0.93;0.93;;;0.80;1.00;;;;;;5034386;28;20638;-74
2022/03/07 00:47:51;;;;;;;0.93;0.93;;;0.90;1.00;;;;;;5034235;28;20176;-74
2022/03/07 00:50:16;;;;;;;0.80;0.80;;;0.80;1.00;;;;;;5034072;28;20231;-73
2022/03/07 00:52:42;;;;;;;0.87;0.87;;;0.80;1.00;;;;;;5034246;28;20274;-74
2022/03/07 00:55:08;;;;;;;0.90;0.90;;;0.70;1.00;;;;;;5034432;28;20176;-74
2022/03/07 00:57:34;;;;;;;0.90;0.90;;;0.70;1.00;;;;;;5033921;28;20184;-74
2022/03/07 00:59:59;;;;;;;0.90;0.90;;;0.80;1.00;;;;;;5033384;28;20820;-74
2022/03/07 01:02:25;;;;;;;0.80;0.80;;;0.80;1.00;;;;;;5034007;28;20186;-75
2022/03/07 01:04:51;;;;;;;0.80;0.80;;;0.80;1.00;;;;;;5016629;28;20581;-75
2022/03/07 01:07:16;;;;;;;1.00;1.00;;;0.70;1.00;;;;;;5034385;28;20186;-75
2022/03/07 01:09:42;;;;;;;0.90;0.90;;;0.70;1.00;;;;;;5033496;28;20673;-75
2022/03/07 01:12:08;;;;;;;0.90;0.90;;;0.70;1.00;;;;;;5034202;28;20172;-74
2022/03/07 01:14:34;;;;;;;0.90;0.90;;;0.70;1.00;;;;;;5033946;28;20195;-74
2022/03/07 01:16:59;;;;;;;0.90;0.90;;;0.70;1.00;;;;;;5033874;28;20182;-74
2022/03/07 01:19:25;;;;;;;0.90;0.90;;;0.70;1.00;;;;;;5033482;28;20728;-75
2022/03/07 01:21:51;;;;;;;0.90;0.90;;;0.80;1.00;;;;;;5033695;28;20216;-75
2022/03/07 01:24:18;;;;;;;0.90;0.90;;;0.60;1.00;;;;;;5033865;28;20179;-74
2022/03/07 01:26:43;;;;;;;0.90;0.90;;;0.70;1.00;;;;;;5033830;28;20187;-74
2022/03/07 01:29:09;;;;;;;0.90;0.90;;;0.70;1.00;;;;;;5033195;28;20567;-73
2022/03/07 01:31:34;;;;;;;0.90;0.90;;;0.70;1.00;;;;;;5033284;28;20175;-74
2022/03/07 01:34:00;;;;;;;0.87;0.87;;;0.50;1.00;;;;;;5033808;28;20215;-74
2022/03/07 01:36:25;;;;;;;0.80;0.80;;;0.80;1.00;;;;;;5033609;28;20647;-74
2022/03/07 01:38:51;;;;;;;0.80;0.80;;;0.70;1.00;;;;;;5033144;28;20180;-75
2022/03/07 01:41:17;;;;;;;0.80;0.80;;;0.70;1.00;;;;;;5033270;28;20218;-74
2022/03/07 01:43:42;;;;;;;0.80;0.80;;;0.60;1.00;;;;;;5033603;28;20638;-74
2022/03/07 01:46:09;;;;;;;0.80;0.80;;;0.60;1.00;;;;;;5032793;28;20572;-74
2022/03/07 01:48:36;;;;;;;0.90;0.90;;;0.50;1.00;;;;;;5033334;28;20570;-75
2022/03/07 01:51:02;;;;;;;0.90;0.90;;;0.50;1.00;;;;;;5033012;28;20287;-74
2022/03/07 01:53:27;;;;;;;0.90;0.90;;;0.40;1.00;;;;;;5033576;28;20238;-74
2022/03/07 01:55:55;;;;;;;0.83;0.83;;;0.40;1.00;;;;;;5033631;28;20180;-73
2022/03/07 01:58:21;;;;;;;0.90;0.90;;;0.40;1.00;;;;;;5033374;28;20293;-74
2022/03/07 02:00:47;;;;;;;0.90;0.90;;;0.30;1.00;;;;;;5032140;28;20314;-74
2022/03/07 02:03:13;;;;;;;0.90;0.90;;;0.30;1.00;;;;;;5033402;28;20546;-74
2022/03/07 02:05:39;;;;;;;0.90;0.90;;;0.20;1.00;;;;;;5033028;28;20235;-75
2022/03/07 02:08:06;;;;;;;0.80;0.80;;;0.30;1.00;;;;;;5032778;28;20666;-74
2022/03/07 02:10:31;;;;;;;0.80;0.80;;;0.20;1.00;;;;;;5032661;28;20199;-75
2022/03/07 02:12:57;;;;;;;0.90;0.90;;;0.20;1.00;;;;;;5033127;28;20198;-74
2022/03/07 02:15:23;;;;;;;0.90;0.90;;;0.20;1.00;;;;;;5033039;28;20179;-74
2022/03/07 02:17:48;;;;;;;0.80;0.80;;;0.20;1.00;;;;;;5033114;28;20183;-74
2022/03/07 02:20:15;;;;;;;0.80;0.80;;;0.20;1.00;;;;;;5032530;28;20682;-74
2022/03/07 02:22:41;;;;;;;0.90;0.90;;;0.10;1.00;;;;;;5032880;28;20188;-75
2022/03/07 02:25:07;;;;;;;0.90;0.90;;;-0.50;1.00;;;;;;5033029;28;20176;-74
2022/03/07 02:27:34;;;;;;;0.90;0.90;;;-0.10;1.00;;;;;;5032663;28;20203;-74
2022/03/07 02:30:00;;;;;;;0.90;0.90;;;-0.20;1.00;;;;;;5031671;28;20550;-74
2022/03/07 02:32:26;;;;;;;0.90;0.90;;;-0.40;1.00;;;;;;5032859;28;20668;-74
2022/03/07 02:34:52;;;;;;;0.80;0.80;;;-0.50;1.00;;;;;;5032774;28;20607;-75
2022/03/07 02:37:18;;;;;;;0.90;0.90;;;-0.50;1.00;;;;;;5032521;28;20547;-73
2022/03/07 02:39:44;;;;;;;0.90;0.90;;;-0.60;1.00;;;;;;5031914;28;20203;-75
2022/03/07 02:42:12;;;;;;;0.90;0.90;;;-0.60;1.00;;;;;;5032226;28;20318;-74
2022/03/07 02:44:39;;;;;;;0.97;0.97;;;-0.50;1.00;;;;;;5032448;28;20255;-74
2022/03/07 02:47:04;;;;;;;0.93;0.93;;;-0.60;1.00;;;;;;5032465;28;20710;-74
2022/03/07 02:49:30;;;;;;;0.90;0.90;;;-0.60;1.00;;;;;;5031933;28;20243;-75
2022/03/07 02:51:56;;;;;;;0.90;0.90;;;-0.60;1.00;;;;;;5032264;28;20184;-75
2022/03/07 02:54:21;;;;;;;0.80;0.80;;;-0.60;1.00;;;;;;5032342;28;20595;-76
2022/03/07 02:56:47;;;;;;;0.90;0.90;;;-0.50;1.00;;;;;;5031189;28;20172;-74
2022/03/07 02:59:13;;;;;;;0.90;0.90;;;-0.60;1.00;;;;;;5031701;28;20198;-75
2022/03/07 03:01:39;;;;;;;0.80;0.80;;;-0.60;1.00;;;;;;5031871;28;20707;-74
2022/03/07 03:04:04;;;;;;;0.90;0.90;;;-0.60;1.00;;;;;;5032127;28;20180;-75
2022/03/07 03:06:30;;;;;;;0.90;0.90;;;-0.60;1.00;;;;;;5032002;28;20215;-73
2022/03/07 03:08:58;;;;;;;1.00;1.00;;;-0.70;1.00;;;;;;5031450;28;20274;-72
2022/03/07 03:11:24;;;;;;;0.80;0.80;;;-0.70;1.00;;;;;;5031814;28;20238;-74
2022/03/07 03:13:49;;;;;;;0.80;0.80;;;-0.70;1.00;;;;;;5031769;28;20199;-74
2022/03/07 03:16:15;;;;;;;0.90;0.90;;;-0.70;1.00;;;;;;5031747;28;20183;-75
2022/03/07 03:18:40;;;;;;;0.90;0.90;;;-0.80;1.00;;;;;;5031801;28;20175;-74
2022/03/07 03:21:06;;;;;;;0.80;0.80;;;-0.80;1.00;;;;;;5030876;28;20580;-74
2022/03/07 03:23:32;;;;;;;0.90;0.90;;;-0.80;1.00;;;;;;5031691;28;20211;-74
2022/03/07 03:25:57;;;;;;;0.90;0.90;;;-0.80;1.00;;;;;;5031760;28;20210;-75
2022/03/07 03:28:23;;;;;;;0.80;0.80;;;-0.80;1.00;;;;;;5031375;28;20226;-75
2022/03/07 03:30:50;;;;;;;0.80;0.80;;;-0.80;1.00;;;;;;5030909;28;20230;-75
2022/03/07 03:33:16;;;;;;;0.90;0.90;;;-0.80;1.00;;;;;;5031653;28;20225;-74
2022/03/07 03:35:41;;;;;;;0.80;0.80;;;-0.90;1.00;;;;;;5031276;28;20176;-76
2022/03/07 03:38:10;;;;;;;0.90;0.90;;;-0.90;1.00;;;;;;5031322;28;20172;-75
2022/03/07 03:40:37;;;;;;;0.70;0.70;;;-1.00;1.00;;;;;;5030611;28;20619;-74
2022/03/07 03:43:03;;;;;;;0.90;0.90;;;-1.00;1.00;;;;;;5031192;28;20605;-74
2022/03/07 03:45:29;;;;;;;0.90;0.90;;;-0.90;1.00;;;;;;5031571;28;20195;-74
2022/03/07 03:47:54;;;;;;;0.80;0.80;;;-1.00;1.00;;;;;;5031426;28;20183;-74
2022/03/07 03:50:20;;;;;;;0.80;0.80;;;-0.90;1.00;;;;;;5030640;28;20327;-75
2022/03/07 03:52:45;;;;;;;0.80;0.80;;;-0.90;1.00;;;;;;5031060;28;20318;-75
2022/03/07 03:55:12;;;;;;;0.80;0.80;;;-0.90;1.00;;;;;;5031175;28;20194;-74
2022/03/07 03:57:39;;;;;;;0.80;0.80;;;-1.00;1.00;;;;;;5031136;28;20172;-73
2022/03/07 04:00:11;;;;;;;0.90;0.90;;;-0.90;1.00;;;;;;5030310;28;20222;-74
2022/03/07 04:02:36;;;;;;;0.90;0.90;;;-1.00;1.00;;;;;;5031558;28;20183;-73
2022/03/07 04:05:03;;;;;;;0.90;0.90;;;-1.00;1.00;;;;;;5031048;28;20179;-75
2022/03/07 04:07:29;;;;;;;0.83;0.83;;;-1.00;1.00;;;;;;5030735;28;20187;-74
2022/03/07 04:09:54;;;;;;;0.90;0.90;;;-1.00;1.00;;;;;;5030452;28;20192;-75
2022/03/07 04:12:20;;;;;;;0.90;0.90;;;-1.00;1.00;;;;;;5033132;28;20503;-75
2022/03/07 04:14:45;;;;;;;0.90;0.90;;;-1.00;1.00;;;;;;5042831;28;20243;-74
2022/03/07 04:17:11;;;;;;;0.90;0.90;;;-1.00;1.00;;;;;;5051277;28;20241;-73
2022/03/07 04:19:37;;;;;;;0.83;0.83;;;-1.10;1.00;;;;;;5031452;28;20727;-75
2022/03/07 04:22:03;;;;;;;0.87;0.87;;;-1.10;1.00;;;;;;5030961;28;20211;-73
2022/03/07 04:24:30;;;;;;;0.90;0.90;;;-1.20;1.00;;;;;;5051936;28;20237;-74
2022/03/07 04:26:58;;;;;;;0.80;0.80;;;-1.20;1.00;;;;;;5054015;28;20234;-76
2022/03/07 04:29:23;;;;;;;0.90;0.90;;;-1.20;1.00;;;;;;5051911;28;20199;-74
2022/03/07 04:31:49;;;;;;;0.90;0.90;;;-1.20;1.00;;;;;;5051422;28;20180;-73
2022/03/07 04:34:14;;;;;;;0.80;0.80;;;-1.30;1.00;;;;;;5053320;28;20183;-74
2022/03/07 04:36:41;;;;;;;0.83;0.83;;;-1.30;1.00;;;;;;5052404;28;20231;-75
2022/03/07 04:39:08;;;;;;;0.93;0.93;;;-1.20;1.00;;;;;;5031005;28;20167;-73
2022/03/07 04:41:35;;;;;;;0.90;0.90;;;-1.30;1.00;;;;;;5030669;28;20729;-73
2022/03/07 04:44:00;;;;;;;0.90;0.90;;;-1.20;1.00;;;;;;5030988;28;20701;-73
2022/03/07 04:46:27;;;;;;;0.80;0.80;;;-1.30;1.00;;;;;;5030596;28;20175;-74
2022/03/07 04:48:52;;;;;;;0.90;0.90;;;-1.40;1.00;;;;;;5030168;28;20578;-74
2022/03/07 04:51:18;;;;;;;0.90;0.90;;;-1.40;1.00;;;;;;5030218;28;20712;-74
2022/03/07 04:53:43;;;;;;;0.90;0.90;;;-1.40;1.00;;;;;;5030520;28;20176;-74
2022/03/07 04:56:10;;;;;;;0.90;0.90;;;-1.40;1.00;;;;;;5030774;28;20636;-75
2022/03/07 04:58:36;;;;;;;0.80;0.80;;;-1.40;1.00;;;;;;5030343;28;20187;-75
2022/03/07 05:01:02;;;;;;;0.80;0.80;;;-1.40;1.00;;;;;;5028881;28;20636;-73
2022/03/07 05:03:28;;;;;;;0.80;0.80;;;-1.40;1.00;;;;;;5030097;28;20619;-76
2022/03/07 05:05:53;;;;;;;0.80;0.80;;;-1.40;1.00;;;;;;5030422;28;20184;-75
2022/03/07 05:08:19;;;;;;;0.80;0.80;;;-1.40;1.00;;;;;;5029903;28;20203;-74
2022/03/07 05:10:45;;;;;;;0.80;0.80;;;-1.40;1.00;;;;;;5029829;28;20718;-75
2022/03/07 05:13:11;;;;;;;0.90;0.90;;;-1.40;1.00;;;;;;5030478;28;20169;-74
2022/03/07 05:15:37;;;;;;;0.90;0.90;;;-1.50;1.00;;;;;;5030134;28;20186;-74
2022/03/07 05:18:03;;;;;;;0.90;0.90;;;-1.50;1.00;;;;;;5030260;28;20184;-74
2022/03/07 05:20:30;;;;;;;0.90;0.90;;;-1.70;99.90;;;;;;5031044;28;20199;-75
2022/03/07 05:22:55;;;;;;;0.90;0.90;;;-1.80;99.90;;;;;;5033876;28;20187;-74
2022/03/07 05:25:21;;;;;;;0.83;0.83;;;-1.70;99.90;;;;;;5033876;28;20172;-73
2022/03/07 05:27:47;;;;;;;0.80;0.80;;;-1.10;99.90;;;;;;5033775;28;20180;-72
2022/03/07 05:30:20;;;;;;;0.73;0.73;;;-0.90;99.90;;;;;;5032552;28;20410;-75
2022/03/07 05:32:51;;;;;;;0.80;0.80;;;-0.90;99.90;;;;;;5034297;28;20187;-74
2022/03/07 05:35:17;;;;;;;0.83;0.83;;;-1.50;99.90;;;;;;5034191;28;20654;-74
2022/03/07 05:37:43;;;;;;;0.80;0.80;;;-1.60;99.90;;;;;;5033961;28;20225;-75
2022/03/07 05:40:10;;;;;;;0.90;0.90;;;-1.70;99.90;;;;;;5033565;28;20286;-75
2022/03/07 05:42:37;;;;;;;0.90;0.90;;;-1.60;99.90;;;;;;5033899;28;20179;-76
2022/03/07 05:45:05;;;;;;;0.80;0.80;;;-1.60;99.90;;;;;;5034118;28;20330;-75
2022/03/07 05:47:30;;;;;;;0.90;0.90;;;-1.80;99.90;;;;;;5033844;28;20188;-75
2022/03/07 05:49:56;;;;;;;0.80;0.80;;;-1.80;1.00;;;;;;5033124;28;20191;-75
2022/03/07 05:52:21;;;;;;;0.80;0.80;;;-1.80;1.00;;;;;;5034076;28;20187;-74
2022/03/07 05:54:48;;;;;;;0.90;0.90;;;-1.90;1.00;;;;;;5033729;28;20638;-74
2022/03/07 05:57:13;;;;;;;0.80;0.80;;;-1.80;1.00;;;;;;5033898;28;20184;-73
2022/03/07 05:59:39;;;;;;;0.90;0.90;;;-1.70;99.90;;;;;;5033385;28;20207;-76
2022/03/07 06:02:04;;;;;;;0.87;0.87;;;-1.60;99.90;;;;;;5033722;28;20257;-76
2022/03/07 06:04:30;;;;;;;0.80;0.80;;;-1.70;99.90;;;;;;5033785;28;20203;-76
2022/03/07 06:06:55;;;;;;;0.80;0.80;;;-1.60;99.90;;;;;;5033713;28;20653;-75
2022/03/07 06:09:21;;;;;;;0.80;0.80;;;-1.50;99.90;;;;;;5033366;28;20192;-76
2022/03/07 06:11:46;;;;;;;0.90;0.90;;;-1.50;99.90;;;;;;5048827;28;20179;-75
2022/03/07 06:14:12;;;;;;;0.87;0.87;;;-1.50;99.90;;;;;;5033432;28;20179;-76
2022/03/07 06:16:37;;;;;;;0.70;0.70;;;-1.40;99.90;;;;;;5033481;28;20176;-76
2022/03/07 06:19:03;;;;;;;0.87;0.87;;;-1.40;99.90;;;;;;5032637;28;20237;-75
2022/03/07 06:21:29;;;;;;;0.90;0.90;;;-1.40;99.90;;;;;;5033160;28;20299;-77
2022/03/07 06:23:54;;;;;;;0.90;0.90;;;-1.40;99.90;;;;;;5033559;28;20168;-75
2022/03/07 06:26:20;;;;;;;0.80;0.80;;;-1.20;99.90;;;;;;5033504;28;20184;-77
2022/03/07 06:28:45;;;;;;;0.90;0.90;;;-1.20;99.90;;;;;;5033342;28;20191;-76
2022/03/07 06:31:11;;;;;;;0.90;0.90;;;-1.00;70.30;;;;;;5032742;28;20192;-76
2022/03/07 06:33:37;;;;;;;0.87;0.87;;;-1.00;53.00;;;;;;5033319;28;20183;-75
2022/03/07 06:36:06;;;;;;;0.90;0.90;;;-0.80;42.00;;;;;;5033279;28;20167;-75
2022/03/07 06:38:32;;;;;;;0.80;0.80;;;-0.70;1.00;;;;;;5033573;28;20190;-76
2022/03/07 06:40:58;;;;;;;0.80;0.80;;;-0.60;1.00;;;;;;5033599;28;20231;-76
2022/03/07 06:43:23;;;;;;;0.80;0.80;;;-0.40;1.00;;;;;;5034889;28;20175;-76
2022/03/07 06:45:49;;;;;;;0.80;0.80;;;-0.30;1.00;;;;;;5034169;28;20556;-77
2022/03/07 06:48:14;;;;;;;0.80;0.80;;;-0.40;1.00;;;;;;5033673;28;20587;-77
2022/03/07 06:50:40;;;;;;;0.90;0.90;;;-0.50;1.00;;;;;;5033017;28;20212;-77
2022/03/07 06:53:06;;;;;;;0.90;0.90;;;-0.20;1.00;;;;;;5034666;28;20192;-76
2022/03/07 06:55:31;;;;;;;0.83;0.83;;;0.00;1.00;;;;;;5033145;28;20254;-76
2022/03/07 06:57:57;;;;;;;0.90;0.90;;;0.50;1.00;;;;;;5032951;28;20175;-75
2022/03/07 07:00:23;;;;;;;0.80;0.80;;;0.70;1.00;;;;;;5032187;28;20241;-77
2022/03/07 07:02:48;;;;;;;0.80;0.80;;;1.70;1.00;;;;;;5033882;28;20230;-77
2022/03/07 07:05:15;;;;;;;0.80;0.80;;;2.50;1.00;;;;;;5033764;28;20198;-76
2022/03/07 07:07:45;;;;;;;0.90;0.90;;;2.80;1.00;;;;;;5033345;28;20259;-77
2022/03/07 07:10:13;;;;;;;0.80;0.80;;;3.40;1.00;;;;;;5033022;28;20322;-77
2022/03/07 07:12:38;;;;;;;0.80;0.80;;;4.30;1.00;;;;;;5034114;28;20638;-77
2022/03/07 07:15:06;;;;;;;0.70;0.70;;;4.60;1.00;;;;;;5033866;28;20180;-77
2022/03/07 07:17:32;;;;;;;0.67;0.67;;;4.50;1.00;;;;;;5034225;28;20186;-78
2022/03/07 07:19:57;;;;;;;0.60;0.60;;;4.00;1.00;;;;;;5033875;28;20563;-75
2022/03/07 07:22:23;;;;;;;0.70;0.70;;;4.00;1.00;;;;;;5032405;28;20211;-77
2022/03/07 07:24:48;;;;;;;0.60;0.60;;;4.50;1.00;;;;;;5032229;28;20178;-76
2022/03/07 07:27:14;;;;;;;0.60;0.60;;;5.40;1.00;;;;;;5032679;28;20183;-77
2022/03/07 07:29:40;;;;;;;0.63;0.63;;;5.70;1.00;;;;;;5031772;28;20290;-76
2022/03/07 07:32:06;;;;;;;0.60;0.60;;;5.30;1.00;;;;;;5032295;28;20175;-75
2022/03/07 07:34:31;;;;;;;0.60;0.60;;;4.70;1.00;;;;;;5032307;28;20172;-76
2022/03/07 07:36:57;;;;;;;0.70;0.70;;;5.40;1.00;;;;;;5032031;28;20625;-76
2022/03/07 07:39:22;;;;;;;0.67;0.67;;;5.50;1.00;;;;;;5031666;28;20192;-75
2022/03/07 07:41:48;;;;;;;0.67;0.67;;;5.60;1.00;;;;;;5031876;28;20243;-77
2022/03/07 07:44:15;;;;;;;0.60;0.60;;;6.10;1.00;;;;;;5031361;28;20538;-76
2022/03/07 07:46:41;;;;;;;0.60;0.60;;;5.50;1.00;;;;;;5031670;28;20585;-77
2022/03/07 07:49:07;;;;;;;0.63;0.63;;;6.30;1.00;;;;;;5031292;28;20176;-75
2022/03/07 07:51:32;;;;;;;0.60;0.60;;;6.40;1.00;;;;;;5031973;28;20182;-75
2022/03/07 07:54:00;;;;;;;0.70;0.70;;;7.10;1.00;;;;;;5031894;28;20179;-76
2022/03/07 07:56:25;;;;;;;0.70;0.70;;;6.30;1.00;;;;;;5031868;28;20232;-76
2022/03/07 07:58:51;;;;;;;0.60;0.60;;;7.00;1.00;;;;;;5031556;28;20561;-76
2022/03/07 08:01:16;;;;;;;0.67;0.67;;;6.10;1.00;;;;;;5031300;28;20208;-76
2022/03/07 08:03:42;;;;;;;0.60;0.60;;;6.40;1.00;;;;;;5031867;28;20207;-77
2022/03/07 08:06:07;;;;;;;0.60;0.60;;;6.50;1.00;;;;;;5031795;28;20183;-74
2022/03/07 08:08:33;;;;;;;0.60;0.60;;;6.50;1.00;;;;;;5031802;28;20286;-75
2022/03/07 08:10:58;;;;;;;0.60;0.60;;;6.80;1.00;;;;;;5031087;28;20249;-75
2022/03/07 08:13:24;;;;;;;0.70;0.70;;;6.60;1.00;;;;;;5031449;28;20172;-76
2022/03/07 08:15:50;;;;;;;0.50;0.50;;;6.30;1.00;;;;;;5031836;28;20180;-75
2022/03/07 08:18:16;;;;;;;0.60;0.60;;;6.90;1.00;;;;;;5031951;28;20168;-73
2022/03/07 08:20:42;;;;;;;0.60;0.60;;;7.10;1.00;;;;;;5030978;28;20667;-76
2022/03/07 08:23:07;;;;;;;0.60;0.60;;;8.00;1.00;;;;;;5031475;28;20682;-74
2022/03/07 08:25:33;;;;;;;0.60;0.60;;;7.60;1.00;;;;;;5031236;28;20207;-75
2022/03/07 08:27:59;;;;;;;0.47;0.47;;;8.40;1.00;;;;;;5031494;28;20257;-76
2022/03/07 08:30:26;;;;;;;0.50;0.50;;;7.30;1.00;;;;;;5030606;28;20204;-74
2022/03/07 08:32:52;;;;;;;0.50;0.50;;;6.90;1.00;;;;;;5031483;28;20262;-76
2022/03/07 08:35:18;;;;;;;0.40;0.40;;;7.00;1.00;;;;;;5031153;28;20275;-76
2022/03/07 08:37:46;;;;;;;0.50;0.50;;;6.90;1.00;;;;;;5031717;28;20211;-75
2022/03/07 08:40:14;;;;;;;0.60;0.60;;;6.80;1.00;;;;;;5032980;28;20200;-75
2022/03/07 08:42:40;;;;;;;0.50;0.50;;;5.50;1.00;;;;;;5032373;28;20239;-77
2022/03/07 08:45:07;;;;;;;0.60;0.60;;;6.30;1.00;;;;;;5031350;28;20598;-77
2022/03/07 08:47:34;;;;;;;0.60;0.60;;;6.20;1.00;;;;;;5030960;28;20176;-76
2022/03/07 08:50:00;;;;;;;0.50;0.50;;;8.10;1.00;;;;;;5030954;28;20213;-76
2022/03/07 08:52:25;;;;;;;0.67;0.67;;;6.50;1.00;;;;;;5030827;28;20172;-75
2022/03/07 08:54:51;;;;;;;0.60;0.60;;;5.40;1.00;;;;;;5032004;28;20175;-76
2022/03/07 08:57:17;;;;;;;0.70;0.70;;;4.90;1.00;;;;;;5035408;28;20179;-76
2022/03/07 08:59:43;;;;;;;0.70;0.70;;;5.00;1.00;;;;;;5034735;28;20208;-76
2022/03/07 09:02:09;;;;;;;0.70;0.70;;;4.80;1.00;;;;;;5035053;28;20574;-76
2022/03/07 09:04:36;;;;;;;0.60;0.60;;;5.10;1.00;;;;;;5035251;28;20176;-76
2022/03/07 09:07:02;;;;;;;0.60;0.60;;;6.50;1.00;;;;;;5035291;28;20246;-78
2022/03/07 09:09:28;;;;;;;0.70;0.70;;;6.90;1.00;;;;;;5034383;28;20192;-76
2022/03/07 09:11:54;;;;;;;0.60;0.60;;;7.20;1.00;;;;;;5034923;28;20187;-76
2022/03/07 09:14:19;;;;;;;0.60;0.60;;;7.90;1.00;;;;;;5034984;28;20172;-75
2022/03/07 09:16:45;;;;;;;0.40;0.40;;;8.50;1.00;;;;;;5034802;28;20171;-75
2022/03/07 09:19:11;;;;;;;0.40;0.40;;;9.40;1.00;;;;;;5034215;28;20175;-76
2022/03/07 09:21:36;;;;;;;0.40;0.40;;;10.00;1.00;;;;;;5035047;28;20650;-77
2022/03/07 09:24:03;;;;;;;0.57;0.57;;;8.30;1.00;;;;;;5034740;28;20204;-75
2022/03/07 09:26:28;;;;;;;0.50;0.50;;;7.40;1.00;;;;;;5034779;28;20210;-75
2022/03/07 09:28:54;;;;;;;0.60;0.60;;;8.20;1.00;;;;;;5034552;28;20200;-75
2022/03/07 09:31:20;;;;;;;0.50;0.50;;;8.60;1.00;;;;;;5034553;28;20195;-77
2022/03/07 09:33:46;;;;;;;0.40;0.40;;;9.30;1.00;;;;;;5034591;28;20179;-76
2022/03/07 09:36:12;;;;;;;0.40;0.40;;;9.60;1.00;;;;;;5034970;28;20180;-75
2022/03/07 09:38:38;;;;;;;0.40;0.40;;;9.60;1.00;;;;;;5034543;28;20237;-76
2022/03/07 09:41:05;;;;;;;0.40;0.40;;;9.00;1.00;;;;;;5033965;28;20207;-76
2022/03/07 09:43:30;;;;;;;0.50;0.50;;;9.40;1.00;;;;;;5034151;28;20187;-76
2022/03/07 09:45:56;;;;;;;0.40;0.40;;;9.10;1.00;;;;;;5034050;28;20258;-75
2022/03/07 09:48:24;;;;;;;0.40;0.40;;;9.60;1.00;;;;;;5034123;28;20180;-75
2022/03/07 09:50:49;;;;;;;0.40;0.40;;;9.80;1.00;;;;;;5033202;28;20195;-76
2022/03/07 09:53:16;;;;;;;0.60;0.60;;;8.70;1.00;;;;;;5034053;28;20661;-76
2022/03/07 09:55:42;;;;;;;0.50;0.50;;;7.70;1.00;;;;;;5033872;28;20183;-76
2022/03/07 09:58:07;;;;;;;0.43;0.43;;;8.90;1.00;;;;;;5033791;28;20172;-76
2022/03/07 10:00:33;;;;;;;0.50;0.50;;;9.30;1.00;;;;;;5032964;28;20234;-76
2022/03/07 10:03:05;;;;;;;0.60;0.60;;;8.50;1.00;;;;;;5034073;28;20172;-75
2022/03/07 10:05:36;;;;;;;0.67;0.67;;;7.30;1.00;;;;;;5033591;28;20178;-76
2022/03/07 10:08:06;;;;;;;0.50;0.50;;;6.70;1.00;;;;;;5033896;28;20180;-75
2022/03/07 10:10:43;;;;;;;0.70;0.70;;;8.40;1.00;;;;;;5033099;28;20631;-76
2022/03/07 10:13:11;;;;;;;0.60;0.60;;;7.60;1.00;;;;;;5033757;28;20262;-75
2022/03/07 10:15:39;;;;;;;0.53;0.53;;;8.50;1.00;;;;;;5033602;28;20183;-76
2022/03/07 10:18:09;;;;;;;0.50;0.50;;;8.90;1.00;;;;;;5033830;28;20172;-74
2022/03/07 10:20:35;;;;;;;0.60;0.60;;;7.90;1.00;;;;;;5033028;28;20204;-75
2022/03/07 10:23:01;;;;;;;0.60;0.60;;;8.20;1.00;;;;;;5033838;28;20269;-77
2022/03/07 10:25:31;;;;;;;0.70;0.70;;;6.40;1.00;;;;;;5033739;28;20179;-75
2022/03/07 10:28:00;;;;;;;0.70;0.70;;;5.80;1.00;;;;;;5033503;28;20187;-75
2022/03/07 10:30:31;;;;;;;0.60;0.60;;;7.90;1.00;;;;;;5032911;28;20617;-75
2022/03/07 10:33:00;;;;;;;0.70;0.70;;;7.60;1.00;;;;;;5033491;28;20184;-75
2022/03/07 10:35:27;;;;;;;0.60;0.60;;;8.30;1.00;;;;;;5033159;28;20658;-75
2022/03/07 10:38:11;;;;;;;0.50;0.50;;;9.20;1.00;;;;;;5033375;28;20179;-75
2022/03/07 10:40:44;;;;;;;0.60;0.60;;;9.60;1.00;;;;;;5032795;28;20203;-76
2022/03/07 10:43:12;;;;;;;0.60;0.60;;;8.90;1.00;;;;;;5033640;28;20175;-76
2022/03/07 10:45:49;;;;;;;0.60;0.60;;;9.10;1.00;;;;;;5033281;28;20646;-76
2022/03/07 10:48:16;;;;;;;0.50;0.50;;;11.00;1.00;;;;;;5033167;28;20229;-76
2022/03/07 10:50:51;;;;;;;0.50;0.50;;;10.00;1.00;;;;;;5032613;28;20195;-75
2022/03/07 10:53:17;;;;;;;0.47;0.47;;;10.40;1.00;;;;;;5033047;28;20168;-74
2022/03/07 10:55:54;;;;;;;0.40;0.40;;;10.30;1.00;;;;;;5032674;28;20172;-75
2022/03/07 10:58:20;;;;;;;0.50;0.50;;;10.40;1.00;;;;;;5032643;28;20642;-76
2022/03/07 11:00:59;;;;;;;0.50;0.50;;;9.50;1.00;;;;;;5031787;28;20227;-76
2022/03/07 11:03:31;;;;;;;0.60;0.60;;;7.00;1.00;;;;;;5033002;28;20190;-78
2022/03/07 11:05:58;;;;;;;0.60;0.60;;;6.10;1.00;;;;;;5032913;28;20180;-73
2022/03/07 11:08:24;;;;;;;0.60;0.60;;;6.60;1.00;;;;;;5032555;28;20249;-74
2022/03/07 11:10:55;;;;;;;0.67;0.67;;;6.00;1.00;;;;;;5031638;28;20254;-75
2022/03/07 11:13:29;;;;;;;0.70;0.70;;;4.80;1.00;;;;;;5032624;28;20172;-75
2022/03/07 11:15:57;;;;;;;0.70;0.70;;;5.50;1.00;;;;;;5032146;28;20639;-75
2022/03/07 11:18:23;;;;;;;0.70;0.70;;;6.10;1.00;;;;;;5031462;28;20184;-76
2022/03/07 11:20:50;;;;;;;0.77;0.77;;;5.90;1.00;;;;;;5031513;28;20720;-75
2022/03/07 11:23:17;;;;;;;0.73;0.73;;;5.90;1.00;;;;;;5031935;28;20176;-75
2022/03/07 11:25:48;;;;;;;0.80;0.80;;;5.70;1.00;;;;;;5032120;28;20180;-73
2022/03/07 11:28:14;;;;;;;0.70;0.70;;;6.50;1.00;;;;;;5032286;28;20230;-74
2022/03/07 11:30:42;;;;;;;0.80;0.80;;;7.00;1.00;;;;;;5031651;28;20195;-74
2022/03/07 11:33:15;;;;;;;0.70;0.70;;;8.80;1.00;;;;;;5031953;28;20187;-74
2022/03/07 11:35:49;;;;;;;0.70;0.70;;;10.50;1.00;;;;;;5032167;28;20215;-76
2022/03/07 11:38:21;;;;;;;0.60;0.60;;;7.90;1.00;;;;;;5032207;28;20176;-75
2022/03/07 11:41:02;;;;;;;0.60;0.60;;;8.30;1.00;;;;;;5031301;28;20208;-74
2022/03/07 11:43:30;;;;;;;0.60;0.60;;;6.80;1.00;;;;;;5031828;28;20271;-74
2022/03/07 11:45:57;;;;;;;0.60;0.60;;;6.80;1.00;;;;;;5031948;28;20180;-75
2022/03/07 11:48:24;;;;;;;0.70;0.70;;;6.00;1.00;;;;;;5031810;28;20172;-73
2022/03/07 11:50:49;;;;;;;0.60;0.60;;;8.20;1.00;;;;;;5031158;28;20630;-75
2022/03/07 11:53:16;;;;;;;0.67;0.67;;;9.40;1.00;;;;;;5031536;28;20600;-75
2022/03/07 11:55:44;;;;;;;0.60;0.60;;;7.60;1.00;;;;;;5031741;28;20635;-76
2022/03/07 11:58:10;;;;;;;0.70;0.70;;;7.10;1.00;;;;;;5031474;28;20304;-75
2022/03/07 12:00:36;;;;;;;0.60;0.60;;;8.40;1.00;;;;;;5031354;28;20668;-73
2022/03/07 12:03:15;;;;;;;0.70;0.70;;;7.10;1.00;;;;;;5031470;28;20187;-73
2022/03/07 12:05:43;;;;;;;0.70;0.70;;;8.20;1.00;;;;;;5031728;28;20179;-73
2022/03/07 12:08:12;;;;;;;0.70;0.70;;;8.90;1.00;;;;;;5031557;28;20180;-74
2022/03/07 12:10:51;;;;;;;0.70;0.70;;;10.10;1.00;;;;;;5031905;28;20195;-73
2022/03/07 12:13:17;;;;;;;0.60;0.60;;;10.80;1.00;;;;;;5031467;28;20556;-73
2022/03/07 12:16:01;;;;;;;0.60;0.60;;;9.70;1.00;;;;;;5031503;28;20243;-73
2022/03/07 12:18:28;;;;;;;0.60;0.60;;;11.10;1.00;;;;;;5031685;28;20175;-73
2022/03/07 12:20:59;;;;;;;0.60;0.60;;;11.30;1.00;;;;;;5030759;28;20697;-73
2022/03/07 12:23:31;;;;;;;0.60;0.60;;;12.40;1.00;;;;;;5032169;28;20257;-74
2022/03/07 12:25:58;;;;;;;0.70;0.70;;;11.60;1.00;;;;;;5032188;28;20306;-73
2022/03/07 12:28:28;;;;;;;0.63;0.63;;;10.50;1.00;;;;;;5031277;28;20183;-73
2022/03/07 12:30:54;;;;;;;0.53;0.53;;;11.50;1.00;;;;;;5030526;28;20210;-72
2022/03/07 12:33:20;;;;;;;0.50;0.50;;;12.40;1.00;;;;;;5031211;28;20183;-73
2022/03/07 12:35:45;;;;;;;0.60;0.60;;;11.80;1.00;;;;;;5031242;28;20183;-74
2022/03/07 12:38:11;;;;;;;0.40;0.40;;;11.50;1.00;;;;;;5031174;28;20199;-73
2022/03/07 12:40:38;;;;;;;0.50;0.50;;;10.80;1.00;;;;;;5030103;28;20261;-73
2022/03/07 12:43:05;;;;;;;0.60;0.60;;;10.40;1.00;;;;;;5031686;28;20184;-74
2022/03/07 12:45:31;;;;;;;0.53;0.53;;;11.00;1.00;;;;;;5031301;28;20186;-73
2022/03/07 12:47:57;;;;;;;0.60;0.60;;;10.20;1.00;;;;;;5031212;28;20234;-72
2022/03/07 12:50:28;;;;;;;0.70;0.70;;;10.10;1.00;;;;;;5030044;28;20191;-74
2022/03/07 12:52:54;;;;;;;0.70;0.70;;;9.80;1.00;;;;;;5028320;28;20176;-74
2022/03/07 12:55:21;;;;;;;0.67;0.67;;;10.50;1.00;;;;;;5030393;28;20206;-74
2022/03/07 12:57:46;;;;;;;0.70;0.70;;;8.80;1.00;;;;;;5030380;28;20183;-73
2022/03/07 13:00:15;;;;;;;0.60;0.60;;;9.10;1.00;;;;;;5029713;28;20268;-74